Time,TemperatureF,DewpointF,PressureIn,WindDirection,WindDirectionDegrees,WindSpeedMPH,WindSpeedGustMPH,Humidity,HourlyPrecipIn,Conditions,Clouds,dailyrainin,SoftwareType,DateUTC
2013-10-02 11:24:00,68.8,64.4,29.62,SE,135,1.1,1.1,86,0.00,,,0.00,WUHU216HW,2013-10-02 16:24:00,
2013-10-02 11:25:00,68.8,64.4,29.62,East,90,0.9,1.1,86,0.00,,,0.00,WUHU216HW,2013-10-02 16:25:00,
2013-10-02 11:30:00,68.8,64.4,29.62,SE,135,1.1,1.8,86,0.00,,,0.00,WUHU216HW,2013-10-02 16:30:00,
2013-10-02 11:35:00,68.8,64.4,29.62,SE,135,1.1,1.8,86,0.00,,,0.00,WUHU216HW,2013-10-02 16:35:00,
2013-10-02 11:40:00,68.8,64.4,29.62,SE,135,1.1,1.1,86,0.00,,,0.00,WUHU216HW,2013-10-02 16:40:00,
2013-10-02 11:45:00,69.5,65.1,29.62,ENE,68,0.9,1.1,86,0.00,,,0.00,WUHU216HW,2013-10-02 16:45:00,
2013-10-02 11:50:00,69.7,64.9,29.62,SE,135,1.6,2.9,85,0.00,,,0.00,WUHU216HW,2013-10-02 16:50:00,
2013-10-02 11:55:00,70.2,65.4,29.62,East,90,1.8,2.9,85,0.00,,,0.00,WUHU216HW,2013-10-02 16:55:00,
2013-10-02 12:00:00,70.4,65.3,29.62,SSE,158,1.1,2.7,84,0.00,,,0.00,WUHU216HW,2013-10-02 17:00:00,
2013-10-02 12:05:00,70.7,65.3,29.62,SSE,158,1.8,2.7,83,0.00,,,0.00,WUHU216HW,2013-10-02 17:05:00,
2013-10-02 12:10:00,71.3,65.8,29.62,SE,135,0.4,2.2,83,0.00,,,0.00,WUHU216HW,2013-10-02 17:10:00,
2013-10-02 12:15:00,71.6,65.9,29.62,SE,135,1.1,2.9,82,0.00,,,0.00,WUHU216HW,2013-10-02 17:15:00,
2013-10-02 12:20:00,71.8,66.1,29.62,SSE,158,2.0,2.9,82,0.00,,,0.00,WUHU216HW,2013-10-02 17:20:00,
2013-10-02 12:25:00,72.4,66.3,29.61,South,180,1.1,3.6,81,0.00,,,0.00,WUHU216HW,2013-10-02 17:25:00,
2013-10-02 12:30:00,72.7,67.0,29.61,South,180,2.2,3.6,82,0.00,,,0.00,WUHU216HW,2013-10-02 17:30:00,
2013-10-02 12:35:00,73.3,67.2,29.61,ENE,68,0.7,3.4,81,0.00,,,0.00,WUHU216HW,2013-10-02 17:35:00,
2013-10-02 12:40:00,73.8,67.3,29.61,ESE,113,2.0,3.4,80,0.00,,,0.00,WUHU216HW,2013-10-02 17:40:00,
2013-10-02 12:45:00,75.2,67.1,29.61,SSW,203,0.7,4.5,76,0.00,,,0.00,WUHU216HW,2013-10-02 17:45:00,
2013-10-02 12:50:00,77.4,67.7,29.60,East,90,0.7,4.5,72,0.00,,,0.00,WUHU216HW,2013-10-02 17:50:00,
2013-10-02 12:55:00,77.4,67.7,29.60,NNW,338,0.4,3.4,72,0.00,,,0.00,WUHU216HW,2013-10-02 17:55:00,
2013-10-02 13:00:00,77.2,67.9,29.60,South,180,1.8,4.9,73,0.00,,,0.00,WUHU216HW,2013-10-02 18:00:00,
2013-10-02 13:05:00,77.8,67.6,29.60,SSE,158,2.7,4.9,71,0.00,,,0.00,WUHU216HW,2013-10-02 18:05:00,
2013-10-02 13:10:00,79.7,67.8,29.60,SE,135,1.1,2.9,67,0.00,,,0.00,WUHU216HW,2013-10-02 18:10:00,
2013-10-02 13:15:00,79.2,66.9,29.59,ENE,68,2.0,3.8,66,0.00,,,0.00,WUHU216HW,2013-10-02 18:15:00,
2013-10-02 13:20:00,78.3,66.9,29.59,SSW,203,2.5,3.8,68,0.00,,,0.00,WUHU216HW,2013-10-02 18:20:00,
2013-10-02 13:25:00,78.8,67.0,29.59,SE,135,2.0,2.5,67,0.00,,,0.00,WUHU216HW,2013-10-02 18:25:00,
2013-10-02 13:30:00,79.9,66.6,29.59,East,90,2.5,3.4,64,0.00,,,0.00,WUHU216HW,2013-10-02 18:30:00,
2013-10-02 13:35:00,79.7,66.9,29.58,East,90,1.1,3.4,65,0.00,,,0.00,WUHU216HW,2013-10-02 18:35:00,
2013-10-02 13:40:00,79.0,67.2,29.58,South,180,5.1,5.1,67,0.00,,,0.00,WUHU216HW,2013-10-02 18:40:00,
2013-10-02 13:45:00,79.6,67.1,29.58,ESE,113,3.4,5.1,66,0.00,,,0.00,WUHU216HW,2013-10-02 18:45:00,
2013-10-02 13:50:00,81.2,66.4,29.58,SW,225,4.0,4.0,61,0.00,,,0.00,WUHU216HW,2013-10-02 18:50:00,
2013-10-02 13:55:00,82.1,66.8,29.57,South,180,2.9,4.0,60,0.00,,,0.00,WUHU216HW,2013-10-02 18:55:00,
2013-10-02 14:00:00,80.8,66.6,29.57,SSW,203,4.3,4.7,62,0.00,,,0.00,WUHU216HW,2013-10-02 19:00:00,
2013-10-02 14:05:00,81.4,67.1,29.57,NE,45,1.8,4.7,62,0.00,,,0.00,WUHU216HW,2013-10-02 19:05:00,
2013-10-02 14:10:00,82.3,67.0,29.57,SE,135,3.4,3.6,60,0.00,,,0.00,WUHU216HW,2013-10-02 19:10:00,
2013-10-02 14:15:00,82.4,66.6,29.56,SSE,158,4.0,4.0,59,0.00,,,0.00,WUHU216HW,2013-10-02 19:15:00,
2013-10-02 14:20:00,82.1,66.8,29.57,SE,135,2.0,5.1,60,0.00,,,0.00,WUHU216HW,2013-10-02 19:20:00,
2013-10-02 14:25:00,83.2,66.8,29.57,South,180,1.1,5.1,58,0.00,,,0.00,WUHU216HW,2013-10-02 19:25:00,
2013-10-02 14:30:00,84.6,67.7,29.56,SE,135,0.7,4.9,57,0.00,,,0.00,WUHU216HW,2013-10-02 19:30:00,
2013-10-02 14:35:00,84.6,67.1,29.56,SW,225,2.9,3.6,56,0.00,,,0.00,WUHU216HW,2013-10-02 19:35:00,
2013-10-02 14:40:00,83.7,66.9,29.56,SSW,203,1.8,3.6,57,0.00,,,0.00,WUHU216HW,2013-10-02 19:40:00,
2013-10-02 14:45:00,84.2,66.3,29.56,WSW,248,3.4,4.7,55,0.00,,,0.00,WUHU216HW,2013-10-02 19:45:00,
2013-10-02 14:50:00,85.7,66.1,29.56,SE,135,1.6,4.9,52,0.00,,,0.00,WUHU216HW,2013-10-02 19:50:00,
2013-10-02 14:55:00,85.0,66.4,29.55,SSE,158,2.7,4.9,54,0.00,,,0.00,WUHU216HW,2013-10-02 19:55:00,
2013-10-02 15:00:00,83.3,64.9,29.55,ENE,68,0.7,3.8,54,0.00,,,0.00,WUHU216HW,2013-10-02 20:00:00,
2013-10-02 15:05:00,83.3,64.9,29.55,SE,135,0.9,3.6,54,0.00,,,0.00,WUHU216HW,2013-10-02 20:05:00,
2013-10-02 15:10:00,83.3,64.9,29.55,SE,135,0.9,2.0,54,0.00,,,0.00,WUHU216HW,2013-10-02 20:10:00,
2013-10-02 16:00:00,84.6,65.1,29.53,SW,225,1.6,1.6,52,0.00,,,0.00,WUHU216HW,2013-10-02 21:00:00,
2013-10-02 16:05:00,85.7,63.7,29.53,SSW,203,1.8,1.8,48,0.00,,,0.00,WUHU216HW,2013-10-02 21:05:00,
2013-10-02 16:10:00,87.1,63.8,29.53,West,270,4.0,4.0,46,0.00,,,0.00,WUHU216HW,2013-10-02 21:10:00,
2013-10-02 16:15:00,86.9,64.3,29.53,SSE,158,0.2,4.0,47,0.00,,,0.00,WUHU216HW,2013-10-02 21:15:00,
2013-10-02 16:20:00,85.9,64.5,29.53,South,180,2.0,3.1,49,0.00,,,0.00,WUHU216HW,2013-10-02 21:20:00,
2013-10-02 16:25:00,86.2,63.0,29.53,South,180,2.7,3.8,46,0.00,,,0.00,WUHU216HW,2013-10-02 21:25:00,
2013-10-02 16:30:00,87.1,63.8,29.53,SSE,158,1.8,3.8,46,0.00,,,0.00,WUHU216HW,2013-10-02 21:30:00,
2013-10-02 16:35:00,86.8,64.1,29.53,SSE,158,0.9,1.8,47,0.00,,,0.00,WUHU216HW,2013-10-02 21:35:00,
2013-10-02 16:40:00,85.7,63.7,29.53,SE,135,1.8,1.8,48,0.00,,,0.00,WUHU216HW,2013-10-02 21:40:00,
2013-10-02 16:45:00,85.0,62.5,29.53,ESE,113,1.3,1.8,47,0.00,,,0.00,WUHU216HW,2013-10-02 21:45:00,
2013-10-02 16:50:00,85.7,63.1,29.53,SE,135,1.1,1.6,47,0.00,,,0.00,WUHU216HW,2013-10-02 21:50:00,
2013-10-02 16:55:00,86.2,62.4,29.53,SE,135,1.8,3.4,45,0.00,,,0.00,WUHU216HW,2013-10-02 21:55:00,
2013-10-02 17:00:00,86.4,61.9,29.52,ENE,68,0.7,3.4,44,0.00,,,0.00,WUHU216HW,2013-10-02 22:00:00,
2013-10-02 17:05:00,86.4,63.2,29.53,SE,135,1.8,2.7,46,0.00,,,0.00,WUHU216HW,2013-10-02 22:05:00,
2013-10-02 17:09:00,85.0,61.8,29.52,SE,135,1.6,2.7,46,0.00,,,0.00,WUHU216HW,2013-10-02 22:09:00,
2013-10-02 17:14:00,84.1,62.3,29.53,SE,135,1.1,2.5,48,0.00,,,0.00,WUHU216HW,2013-10-02 22:14:00,
2013-10-02 17:19:00,84.4,62.0,29.53,SE,135,1.8,2.0,47,0.00,,,0.00,WUHU216HW,2013-10-02 22:19:00,
2013-10-02 17:24:00,84.6,63.5,29.53,SE,135,0.2,2.0,49,0.00,,,0.00,WUHU216HW,2013-10-02 22:24:00,
2013-10-02 17:29:00,83.9,62.7,29.53,SSE,158,0.4,1.8,49,0.00,,,0.00,WUHU216HW,2013-10-02 22:29:00,
2013-10-02 17:34:00,83.2,62.6,29.53,SE,135,0.9,1.1,50,0.00,,,0.00,WUHU216HW,2013-10-02 22:34:00,
2013-10-02 17:39:00,83.9,62.7,29.53,SE,135,0.7,1.1,49,0.00,,,0.00,WUHU216HW,2013-10-02 22:39:00,
2013-10-02 17:44:00,84.4,63.3,29.53,SSE,158,1.6,1.6,49,0.00,,,0.00,WUHU216HW,2013-10-02 22:44:00,
2013-10-02 17:49:00,84.1,62.9,29.53,SE,135,0.7,2.2,49,0.00,,,0.00,WUHU216HW,2013-10-02 22:49:00,
2013-10-02 17:54:00,83.2,63.2,29.53,SE,135,0.9,2.2,51,0.00,,,0.00,WUHU216HW,2013-10-02 22:54:00,
2013-10-02 17:59:00,82.4,63.0,29.53,SSE,158,2.0,2.2,52,0.00,,,0.00,WUHU216HW,2013-10-02 22:59:00,
2013-10-02 18:04:00,83.3,63.4,29.53,ESE,113,1.8,2.2,51,0.00,,,0.00,WUHU216HW,2013-10-02 23:04:00,
2013-10-02 18:09:00,83.9,63.9,29.53,SE,135,0.9,2.0,51,0.00,,,0.00,WUHU216HW,2013-10-02 23:09:00,
2013-10-02 18:14:00,83.2,63.7,29.53,ESE,113,0.7,2.0,52,0.00,,,0.00,WUHU216HW,2013-10-02 23:14:00,
2013-10-02 18:19:00,82.1,63.7,29.53,SE,135,1.1,1.3,54,0.00,,,0.00,WUHU216HW,2013-10-02 23:19:00,
2013-10-02 18:24:00,82.1,63.7,29.53,ESE,113,0.0,1.3,54,0.00,,,0.00,WUHU216HW,2013-10-02 23:24:00,
2013-10-02 18:29:00,82.6,63.6,29.53,ENE,68,0.7,1.3,53,0.00,,,0.00,WUHU216HW,2013-10-02 23:29:00,
2013-10-02 18:34:00,82.1,63.7,29.53,SE,135,0.2,1.3,54,0.00,,,0.00,WUHU216HW,2013-10-02 23:34:00,
2013-10-02 18:39:00,81.4,63.5,29.53,SE,135,0.0,0.9,55,0.00,,,0.00,WUHU216HW,2013-10-02 23:39:00,
2013-10-02 18:44:00,81.0,63.7,29.53,SE,135,0.0,0.9,56,0.00,,,0.00,WUHU216HW,2013-10-02 23:44:00,
2013-10-02 18:49:00,81.4,64.1,29.53,ESE,113,0.0,0.7,56,0.00,,,0.00,WUHU216HW,2013-10-02 23:49:00,
2013-10-02 18:54:00,81.2,63.9,29.53,ESE,113,0.0,0.9,56,0.00,,,0.00,WUHU216HW,2013-10-02 23:54:00,
2013-10-02 18:59:00,80.5,63.3,29.53,ESE,113,0.4,1.1,56,0.00,,,0.00,WUHU216HW,2013-10-02 23:59:00,
2013-10-02 19:04:00,79.6,63.0,29.53,ENE,68,0.7,1.3,57,0.00,,,0.00,WUHU216HW,2013-10-03 00:04:00,
2013-10-02 19:09:00,78.3,63.8,29.53,East,90,1.8,2.5,61,0.00,,,0.00,WUHU216HW,2013-10-03 00:09:00,
2013-10-02 19:14:00,78.7,64.2,29.52,ESE,113,1.6,2.5,61,0.00,,,0.00,WUHU216HW,2013-10-03 00:14:00,
2013-10-02 19:19:00,79.2,64.3,29.52,East,90,1.1,2.2,60,0.00,,,0.00,WUHU216HW,2013-10-03 00:19:00,
2013-10-02 19:24:00,78.1,63.6,29.52,East,90,0.9,1.6,61,0.00,,,0.00,WUHU216HW,2013-10-03 00:24:00,
2013-10-02 19:29:00,77.0,63.0,29.52,East,90,1.1,1.6,62,0.00,,,0.00,WUHU216HW,2013-10-03 00:29:00,
2013-10-02 19:34:00,76.3,63.2,29.52,East,90,1.1,1.1,64,0.00,,,0.00,WUHU216HW,2013-10-03 00:34:00,
2013-10-02 19:39:00,75.6,63.0,29.52,ESE,113,0.7,1.1,65,0.00,,,0.00,WUHU216HW,2013-10-03 00:39:00,
2013-10-02 19:44:00,75.8,64.4,29.52,NE,45,1.3,1.3,68,0.00,,,0.00,WUHU216HW,2013-10-03 00:44:00,
2013-10-02 19:49:00,76.7,64.9,29.52,ESE,113,1.1,1.3,67,0.00,,,0.00,WUHU216HW,2013-10-03 00:49:00,
2013-10-02 19:54:00,76.5,64.3,29.52,ESE,113,1.1,1.3,66,0.00,,,0.00,WUHU216HW,2013-10-03 00:54:00,
2013-10-02 19:59:00,75.6,63.8,29.52,SE,135,1.8,1.8,67,0.00,,,0.00,WUHU216HW,2013-10-03 00:59:00,
2013-10-02 20:04:00,74.5,64.2,29.52,ESE,113,2.5,2.5,70,0.00,,,0.00,WUHU216HW,2013-10-03 01:04:00,
2013-10-02 20:09:00,74.2,64.2,29.52,SE,135,2.2,2.5,71,0.00,,,0.00,WUHU216HW,2013-10-03 01:09:00,
2013-10-02 20:14:00,73.6,64.1,29.52,SE,135,1.1,2.2,72,0.00,,,0.00,WUHU216HW,2013-10-03 01:14:00,
2013-10-02 20:19:00,73.4,64.7,29.52,SE,135,0.7,2.2,74,0.00,,,0.00,WUHU216HW,2013-10-03 01:19:00,
2013-10-02 20:24:00,73.4,65.4,29.52,SE,135,2.0,2.2,76,0.00,,,0.00,WUHU216HW,2013-10-03 01:24:00,
2013-10-02 20:29:00,74.9,66.4,29.52,SE,135,1.1,3.1,75,0.00,,,0.00,WUHU216HW,2013-10-03 01:29:00,
2013-10-02 20:34:00,74.9,65.6,29.52,SE,135,2.9,3.1,73,0.00,,,0.00,WUHU216HW,2013-10-03 01:34:00,
2013-10-02 20:39:00,73.8,65.4,29.52,SE,135,2.2,3.8,75,0.00,,,0.00,WUHU216HW,2013-10-03 01:39:00,
2013-10-02 20:44:00,73.1,65.4,29.52,ENE,68,2.5,4.0,77,0.00,,,0.00,WUHU216HW,2013-10-03 01:44:00,
2013-10-02 20:49:00,72.7,65.5,29.53,ESE,113,1.8,4.0,78,0.00,,,0.00,WUHU216HW,2013-10-03 01:49:00,
2013-10-02 20:54:00,72.5,65.7,29.53,East,90,2.2,4.0,79,0.00,,,0.00,WUHU216HW,2013-10-03 01:54:00,
2013-10-02 20:59:00,72.4,65.5,29.53,SSE,158,2.0,4.0,79,0.00,,,0.00,WUHU216HW,2013-10-03 01:59:00,
2013-10-02 21:04:00,72.2,65.7,29.53,SSE,158,2.0,4.3,80,0.00,,,0.00,WUHU216HW,2013-10-03 02:04:00,
2013-10-02 21:05:00,72.4,65.9,29.53,ESE,113,3.4,4.3,80,0.00,,,0.00,WUHU216HW,2013-10-03 02:05:00,
2013-10-02 21:10:00,73.4,66.6,29.53,NE,45,1.8,4.0,79,0.00,,,0.00,WUHU216HW,2013-10-03 02:10:00,
2013-10-02 21:15:00,73.3,66.1,29.53,East,90,2.9,3.8,78,0.00,,,0.00,WUHU216HW,2013-10-03 02:15:00,
2013-10-02 21:20:00,72.5,66.1,29.53,SSE,158,2.9,3.8,80,0.00,,,0.00,WUHU216HW,2013-10-03 02:20:00,
2013-10-02 21:25:00,72.0,65.5,29.53,SE,135,2.5,3.8,80,0.00,,,0.00,WUHU216HW,2013-10-03 02:25:00,
2013-10-02 21:30:00,71.6,65.2,29.53,SE,135,2.2,4.7,80,0.00,,,0.00,WUHU216HW,2013-10-03 02:30:00,
2013-10-02 21:35:00,71.6,65.5,29.53,SE,135,2.5,4.7,81,0.00,,,0.00,WUHU216HW,2013-10-03 02:35:00,
2013-10-02 21:40:00,71.5,65.4,29.53,SE,135,1.1,3.8,81,0.00,,,0.00,WUHU216HW,2013-10-03 02:40:00,
2013-10-02 21:45:00,71.3,65.5,29.53,ESE,113,2.5,3.8,82,0.00,,,0.00,WUHU216HW,2013-10-03 02:45:00,
2013-10-02 21:50:00,71.1,65.4,29.53,SSE,158,2.5,3.8,82,0.00,,,0.00,WUHU216HW,2013-10-03 02:50:00,
2013-10-02 21:55:00,71.5,66.0,29.53,ESE,113,1.1,2.5,83,0.00,,,0.00,WUHU216HW,2013-10-03 02:55:00,
2013-10-02 22:00:00,72.7,66.2,29.53,SE,135,1.8,2.0,80,0.00,,,0.00,WUHU216HW,2013-10-03 03:00:00,
2013-10-02 22:05:00,72.2,65.7,29.53,East,90,2.7,2.7,80,0.00,,,0.00,WUHU216HW,2013-10-03 03:05:00,
2013-10-02 22:10:00,71.5,65.4,29.53,SE,135,2.5,2.7,81,0.00,,,0.00,WUHU216HW,2013-10-03 03:10:00,
2013-10-02 22:15:00,70.9,65.2,29.53,SE,135,1.6,2.9,82,0.00,,,0.00,WUHU216HW,2013-10-03 03:15:00,
2013-10-02 22:20:00,70.9,65.4,29.53,SE,135,2.0,2.9,83,0.00,,,0.00,WUHU216HW,2013-10-03 03:20:00,
2013-10-02 22:25:00,70.6,65.1,29.54,SE,135,0.2,2.9,83,0.00,,,0.00,WUHU216HW,2013-10-03 03:25:00,
2013-10-02 22:30:00,70.6,65.1,29.54,SE,135,1.8,1.8,83,0.00,,,0.00,WUHU216HW,2013-10-03 03:30:00,
2013-10-02 22:35:00,70.4,65.3,29.54,SSE,158,2.5,2.5,84,0.00,,,0.00,WUHU216HW,2013-10-03 03:35:00,
2013-10-02 22:40:00,70.2,65.1,29.54,ESE,113,1.1,2.5,84,0.00,,,0.00,WUHU216HW,2013-10-03 03:40:00,
2013-10-02 22:45:00,70.2,65.1,29.54,SE,135,1.1,2.5,84,0.00,,,0.00,WUHU216HW,2013-10-03 03:45:00,
2013-10-02 22:50:00,70.2,65.1,29.54,South,180,1.8,2.5,84,0.00,,,0.00,WUHU216HW,2013-10-03 03:50:00,
2013-10-02 22:55:00,70.0,64.9,29.54,South,180,1.1,2.9,84,0.00,,,0.00,WUHU216HW,2013-10-03 03:55:00,
2013-10-02 23:00:00,70.0,65.3,29.54,NNW,338,1.8,3.1,85,0.00,,,0.00,WUHU216HW,2013-10-03 04:00:00,
2013-10-02 23:01:00,70.0,65.3,29.54,SSE,158,1.3,3.1,85,0.00,,,0.00,WUHU216HW,2013-10-03 04:01:00,
2013-10-02 23:06:00,69.8,65.1,29.54,SE,135,2.0,3.8,85,0.00,,,0.00,WUHU216HW,2013-10-03 04:06:00,
2013-10-02 23:11:00,69.8,65.1,29.54,ESE,113,2.0,4.7,85,0.00,,,0.00,WUHU216HW,2013-10-03 04:11:00,
2013-10-02 23:16:00,69.8,65.4,29.54,SSE,158,1.8,4.7,86,0.00,,,0.00,WUHU216HW,2013-10-03 04:16:00,
2013-10-02 23:21:00,69.7,65.3,29.54,SE,135,1.8,4.0,86,0.00,,,0.00,WUHU216HW,2013-10-03 04:21:00,
2013-10-02 23:26:00,69.7,65.3,29.53,SE,135,1.8,3.4,86,0.00,,,0.00,WUHU216HW,2013-10-03 04:26:00,
2013-10-02 23:31:00,69.5,65.1,29.53,ESE,113,1.6,3.4,86,0.00,,,0.00,WUHU216HW,2013-10-03 04:31:00,
2013-10-02 23:36:00,70.2,65.8,29.53,SSE,158,1.8,3.4,86,0.00,,,0.00,WUHU216HW,2013-10-03 04:36:00,
2013-10-02 23:41:00,71.6,66.2,29.53,SE,135,2.0,3.4,83,0.00,,,0.00,WUHU216HW,2013-10-03 04:41:00,
2013-10-02 23:46:00,71.3,65.5,29.53,SE,135,0.4,3.4,82,0.00,,,0.00,WUHU216HW,2013-10-03 04:46:00,
2013-10-02 23:51:00,70.6,65.1,29.53,ESE,113,1.6,2.5,83,0.00,,,0.00,WUHU216HW,2013-10-03 04:51:00,
2013-10-02 23:56:00,70.0,64.9,29.53,SE,135,1.3,2.5,84,0.00,,,0.00,WUHU216HW,2013-10-03 04:56:00,